createdAt,value
2019-05-26T00:01:33.045Z,2.4
2019-05-26T00:03:32.779Z,2.4
2019-05-26T00:04:36.927Z,2.4
2019-05-26T00:09:31.674Z,1.2
2019-05-26T00:11:32.103Z,1.2
2019-05-26T00:13:31.610Z,1.2
2019-05-26T00:15:32.072Z,1.2
2019-05-26T00:17:31.673Z,1.2
2019-05-26T00:19:32.193Z,1.2
2019-05-26T00:21:31.703Z,1.2
2019-05-26T00:23:32.166Z,1.2
2019-05-26T00:25:31.591Z,1.2
2019-05-26T00:27:32.006Z,1.2
2019-05-26T00:29:31.461Z,1.2
2019-05-26T00:31:31.899Z,1.2
2019-05-26T00:33:32.391Z,1.2
2019-05-26T00:35:31.810Z,1.2
2019-05-26T00:37:51.366Z,1.2
2019-05-26T00:39:31.588Z,2.4
2019-05-26T00:41:32.014Z,2.4
2019-05-26T00:43:32.523Z,2.4
2019-05-26T00:45:32.051Z,1.2
2019-05-26T00:47:31.570Z,1.2
2019-05-26T00:49:32.009Z,2.4
2019-05-26T00:51:31.477Z,2.4
2019-05-26T00:53:31.888Z,2.4
2019-05-26T00:55:32.346Z,0
2019-05-26T00:57:31.826Z,0
2019-05-26T00:59:32.287Z,1.2
2019-05-26T01:01:31.679Z,1.2
2019-05-26T01:03:32.202Z,1.2
2019-05-26T01:05:31.666Z,1.2
2019-05-26T01:07:32.136Z,1.2
2019-05-26T01:09:31.586Z,1.2
2019-05-26T01:11:31.981Z,1.2
2019-05-26T01:13:31.478Z,1.2
2019-05-26T01:15:31.923Z,1.2
2019-05-26T01:17:32.350Z,1.2
2019-05-26T01:19:31.879Z,0
2019-05-26T01:21:32.387Z,0
2019-05-26T01:23:31.945Z,0
2019-05-26T01:25:32.371Z,2.4
2019-05-26T01:27:31.807Z,2.4
2019-05-26T01:29:32.303Z,2.4
2019-05-26T01:31:31.829Z,2.4
2019-05-26T01:33:32.313Z,2.4
2019-05-26T01:35:31.725Z,1.2
2019-05-26T01:37:32.273Z,1.2
2019-05-26T01:39:31.643Z,1.2
2019-05-26T01:41:32.111Z,1.2
2019-05-26T01:43:32.030Z,1.2
2019-05-26T01:45:32.506Z,0
2019-05-26T01:47:31.913Z,0
2019-05-26T01:49:32.310Z,1.2
2019-05-26T01:51:31.764Z,1.2
2019-05-26T01:53:32.250Z,1.2
2019-05-26T01:55:31.721Z,0
2019-05-26T01:57:32.216Z,0
2019-05-26T01:59:31.798Z,0
2019-05-26T02:01:32.200Z,0
2019-05-26T02:03:31.594Z,0
2019-05-26T02:04:36.157Z,0
2019-05-26T02:06:39.581Z,0
2019-05-26T02:09:32.027Z,0
2019-05-26T02:11:32.496Z,0
2019-05-26T05:15:05.602Z,2.4
2019-05-26T05:16:37.147Z,2.4
2019-05-26T05:18:36.656Z,2.4
2019-05-26T05:20:37.216Z,6.1
2019-05-26T05:22:36.646Z,6.1
2019-05-26T05:24:37.099Z,8.6
2019-05-26T05:26:36.589Z,8.6
2019-05-26T05:28:37.111Z,8.6
2019-05-26T05:30:36.609Z,3.7
2019-05-26T05:32:37.090Z,3.7
2019-05-26T05:34:37.069Z,4.9
2019-05-26T05:36:35.056Z,4.9
2019-05-26T05:38:34.959Z,4.9
2019-05-26T05:40:36.347Z,6.1
2019-05-26T05:42:36.825Z,6.1
2019-05-26T05:44:36.298Z,3.7
2019-05-26T05:46:37.036Z,3.7
2019-05-26T05:48:36.508Z,3.7
2019-05-26T05:50:40.133Z,4.9
2019-05-26T05:52:36.549Z,4.9
2019-05-26T05:54:36.889Z,4.9
2019-05-26T05:56:36.346Z,4.9
2019-05-26T05:58:36.743Z,4.9
2019-05-26T06:00:37.144Z,3.7
2019-05-26T06:02:36.534Z,3.7
2019-05-26T06:04:36.888Z,3.7
2019-05-26T06:06:36.895Z,3.7
2019-05-26T06:08:34.897Z,3.7
2019-05-26T06:10:36.292Z,3.7
2019-05-26T06:12:36.747Z,3.7
2019-05-26T06:14:37.229Z,2.4
2019-05-26T06:16:36.781Z,2.4
2019-05-26T06:18:36.460Z,2.4
2019-05-26T06:20:36.880Z,3.7
2019-05-26T06:22:36.556Z,3.7
2019-05-26T06:24:36.911Z,3.7
2019-05-26T06:26:36.408Z,3.7
2019-05-26T06:28:36.854Z,3.7
2019-05-26T06:30:36.301Z,2.4
2019-05-26T06:32:36.803Z,2.4
2019-05-26T06:34:37.158Z,6.1
2019-05-26T06:36:36.639Z,6.1
2019-05-26T06:38:37.212Z,6.1
2019-05-26T06:40:36.808Z,3.7
2019-05-26T06:42:37.342Z,3.7
2019-05-26T06:44:54.799Z,2.4
2019-05-26T06:46:37.297Z,2.4
2019-05-26T06:48:36.860Z,2.4
2019-05-26T06:50:36.338Z,6.1
2019-05-26T06:52:36.863Z,6.1
2019-05-26T06:54:36.330Z,4.9
2019-05-26T06:56:36.766Z,4.9
2019-05-26T06:58:36.427Z,4.9
2019-05-26T07:00:36.947Z,3.7
2019-05-26T07:02:36.510Z,3.7
2019-05-26T07:04:37.041Z,3.7
2019-05-26T07:06:36.591Z,3.7
2019-05-26T07:08:37.665Z,3.7
2019-05-26T07:10:37.196Z,4.9
2019-05-26T07:12:36.670Z,4.9
2019-05-26T07:14:37.134Z,4.9
2019-05-26T07:16:39.569Z,4.9
2019-05-26T07:18:37.142Z,4.9
2019-05-26T07:20:36.614Z,3.7
2019-05-26T07:22:37.169Z,3.7
2019-05-26T07:24:36.615Z,7.3
2019-05-26T07:26:37.039Z,7.3
2019-05-26T07:28:36.592Z,7.3
2019-05-26T07:30:37.195Z,3.7
2019-05-26T07:32:36.683Z,3.7
2019-05-26T07:34:37.081Z,4.9
2019-05-26T07:36:36.555Z,4.9
2019-05-26T07:38:37.087Z,4.9
2019-05-26T07:40:37.085Z,6.1
2019-05-26T07:42:36.549Z,6.1
2019-05-26T07:44:36.967Z,6.1
2019-05-26T07:46:36.501Z,6.1
2019-05-26T07:48:37.125Z,6.1
2019-05-26T07:50:36.609Z,4.9
2019-05-26T07:52:37.214Z,4.9
2019-05-26T07:54:36.721Z,3.7
2019-05-26T07:56:37.667Z,3.7
2019-05-26T07:58:37.125Z,3.7
2019-05-26T08:02:36.727Z,11
2019-05-26T08:04:37.231Z,3.7
2019-05-26T08:06:36.690Z,3.7
2019-05-26T08:08:37.177Z,3.7
2019-05-26T08:10:36.483Z,3.7
2019-05-26T08:12:36.980Z,3.7
2019-05-26T08:14:36.333Z,3.7
2019-05-26T08:16:36.733Z,3.7
2019-05-26T08:18:36.327Z,3.7
2019-05-26T08:20:37.013Z,7.3
2019-05-26T08:22:36.466Z,7.3
2019-05-26T08:24:37.084Z,7.3
2019-05-26T08:26:36.531Z,7.3
2019-05-26T08:30:37.924Z,7.3
2019-05-26T08:32:37.169Z,7.3
2019-05-26T08:34:44.614Z,7.3
2019-05-26T08:36:40.311Z,7.3
2019-05-26T08:42:45.453Z,7.3
2019-05-26T08:46:37.014Z,2.4
2019-05-26T08:48:36.574Z,2.4
2019-05-26T08:50:36.042Z,2.4
2019-05-26T08:52:45.214Z,1.2
2019-05-26T08:54:44.308Z,1.2
2019-05-26T08:56:55.868Z,1.2
2019-05-26T08:58:39.051Z,1.2
2019-05-26T09:24:54.907Z,1.2
2019-05-26T09:36:36.295Z,1.2
2019-05-26T09:38:36.552Z,7.3
2019-05-26T09:52:36.149Z,2.4
2019-05-26T09:54:35.670Z,3.7
2019-05-26T09:56:36.035Z,3.7
2019-05-26T09:58:36.603Z,3.7
2019-05-26T10:00:36.127Z,3.7
2019-05-26T10:02:36.771Z,3.7
2019-05-26T10:04:36.450Z,3.7
2019-05-26T10:06:35.940Z,3.7
2019-05-26T10:08:36.605Z,7.3
2019-05-26T10:10:37.028Z,7.3
2019-05-26T10:12:36.712Z,7.3
2019-05-26T10:14:36.101Z,7.3
2019-05-26T10:16:36.623Z,7.3
2019-05-26T10:18:36.453Z,1.2
2019-05-26T10:20:35.926Z,1.2
2019-05-26T10:22:35.457Z,2.4
2019-05-26T10:24:37.029Z,2.4
2019-05-26T10:26:36.458Z,2.4
2019-05-26T10:28:37.095Z,3.7
2019-05-26T10:30:36.656Z,3.7
2019-05-26T10:32:36.617Z,3.7
2019-05-26T10:34:34.602Z,3.7
2019-05-26T10:36:35.951Z,3.7
2019-05-26T10:38:35.554Z,4.9
2019-05-26T10:40:36.081Z,4.9
2019-05-26T10:42:36.562Z,2.4
2019-05-26T10:44:36.264Z,2.4
2019-05-26T10:46:35.823Z,2.4
2019-05-26T10:48:36.275Z,2.4
2019-05-26T10:50:36.749Z,2.4
2019-05-26T10:52:36.173Z,0
2019-05-26T10:54:35.557Z,0
2019-05-26T10:56:36.103Z,0
2019-05-26T10:58:35.455Z,3.7
2019-05-26T11:00:36.878Z,3.7
2019-05-26T11:02:36.467Z,3.7
2019-05-26T11:04:36.184Z,3.7
2019-05-26T11:06:35.763Z,3.7
2019-05-26T11:08:36.392Z,0
2019-05-26T11:10:36.778Z,0
2019-05-26T11:12:36.342Z,0
2019-05-26T11:14:36.922Z,0
2019-05-26T11:16:36.401Z,0
2019-05-26T11:18:36.073Z,2.4
2019-05-26T11:20:35.622Z,2.4
2019-05-26T11:22:38.690Z,2.4
2019-05-26T11:24:34.799Z,2.4
2019-05-26T11:26:36.119Z,2.4
2019-05-26T11:28:36.609Z,2.4
2019-05-26T11:30:36.047Z,2.4
2019-05-26T11:32:35.347Z,4.9
2019-05-26T11:34:36.899Z,4.9
2019-05-26T11:36:36.319Z,4.9
2019-05-26T11:38:37.033Z,3.7
2019-05-26T11:40:36.523Z,3.7
2019-05-26T11:42:35.787Z,0
2019-05-26T11:44:36.294Z,0
2019-05-26T11:46:36.802Z,0
2019-05-26T11:48:40.204Z,2.4
2019-05-26T11:50:36.787Z,2.4
2019-05-26T11:52:36.056Z,1.2
2019-05-26T11:54:35.923Z,1.2
2019-05-26T11:56:36.302Z,1.2
2019-05-26T11:58:35.817Z,3.7
2019-05-26T12:02:36.314Z,3.7
2019-05-26T12:04:36.436Z,3.7
2019-05-26T12:06:34.516Z,3.7
2019-05-26T12:08:36.123Z,2.4
2019-05-26T12:10:36.680Z,2.4
2019-05-26T12:12:36.612Z,4.9
2019-05-26T12:14:36.450Z,4.9
2019-05-26T12:16:35.922Z,4.9
2019-05-26T12:18:36.574Z,6.1
2019-05-26T12:20:37.067Z,6.1
2019-05-26T12:22:36.484Z,6.1
2019-05-26T12:24:36.000Z,6.1
2019-05-26T12:26:36.464Z,6.1
2019-05-26T12:28:36.054Z,8.6
2019-05-26T12:30:35.540Z,8.6
2019-05-26T12:32:36.110Z,3.7
2019-05-26T12:34:36.812Z,3.7
2019-05-26T12:36:40.173Z,3.7
2019-05-26T12:38:36.799Z,4.9
2019-05-26T12:40:36.256Z,4.9
2019-05-26T12:42:35.768Z,4.9
2019-05-26T12:44:50.668Z,4.9
2019-05-26T12:46:36.412Z,4.9
2019-05-26T12:48:36.363Z,2.4
2019-05-26T12:50:37.047Z,2.4
2019-05-26T12:52:36.717Z,3.7
2019-05-26T12:54:36.581Z,3.7
2019-05-26T12:56:36.343Z,3.7
2019-05-26T12:58:37.099Z,6.1
2019-05-26T13:00:55.795Z,6.1
2019-05-26T13:02:36.976Z,6.1
2019-05-26T13:04:36.733Z,6.1
2019-05-26T13:06:36.259Z,6.1
2019-05-26T13:08:35.917Z,1.2
2019-05-26T13:10:36.563Z,1.2
2019-05-26T13:12:37.084Z,6.1
2019-05-26T13:14:36.670Z,4.9
2019-05-26T13:16:36.766Z,4.9
2019-05-26T13:18:36.588Z,3.7
2019-05-26T13:20:36.050Z,3.7
2019-05-26T13:22:37.636Z,3.7
2019-05-26T13:24:36.618Z,3.7
2019-05-26T13:26:36.159Z,3.7
2019-05-26T13:28:36.755Z,2.4
2019-05-26T13:30:36.254Z,2.4
2019-05-26T13:32:35.710Z,2.4
2019-05-26T13:34:36.867Z,1.2
2019-05-26T13:36:34.799Z,1.2
2019-05-26T13:38:36.400Z,1.2
2019-05-26T13:40:35.870Z,1.2
2019-05-26T13:42:36.343Z,1.2
2019-05-26T13:44:37.089Z,2.4
2019-05-26T13:46:36.696Z,2.4
2019-05-26T13:48:37.433Z,1.2
2019-05-26T13:50:37.022Z,1.2
2019-05-26T13:52:36.804Z,2.4
2019-05-26T13:54:36.644Z,1.2
2019-05-26T13:56:36.217Z,1.2
2019-05-26T13:58:35.886Z,7.3
2019-05-26T14:02:36.648Z,7.3
2019-05-26T14:04:36.311Z,7.3
2019-05-26T14:06:37.227Z,7.3
2019-05-26T14:08:36.908Z,7.3
2019-05-26T14:10:36.516Z,7.3
2019-05-26T14:12:37.032Z,7.3
2019-05-26T14:14:36.579Z,3.7
2019-05-26T14:16:35.988Z,3.7
2019-05-26T14:18:36.704Z,3.7
2019-05-26T14:20:36.171Z,3.7
2019-05-26T14:22:35.681Z,2.4
2019-05-26T14:24:36.189Z,1.2
2019-05-26T14:26:36.658Z,1.2
2019-05-26T14:28:36.212Z,1.2
2019-05-26T14:30:35.949Z,1.2
2019-05-26T14:32:36.407Z,2.4
2019-05-26T14:34:36.887Z,4.9
2019-05-26T14:36:36.318Z,4.9
2019-05-26T14:38:44.390Z,4.9
2019-05-26T14:40:36.967Z,4.9
2019-05-26T14:42:36.357Z,4.9
2019-05-26T14:44:36.028Z,1.2
2019-05-26T14:46:35.476Z,1.2
2019-05-26T14:48:36.038Z,0
2019-05-26T14:50:36.577Z,0
2019-05-26T14:52:36.160Z,2.4
2019-05-26T14:54:36.756Z,0
2019-05-26T14:56:36.349Z,0
2019-05-26T14:58:35.953Z,0
2019-05-26T15:00:36.543Z,0
2019-05-26T15:02:36.043Z,0
2019-05-26T15:04:35.744Z,4.9
2019-05-26T15:06:36.328Z,4.9
2019-05-26T15:08:36.085Z,3.7
2019-05-26T15:10:36.681Z,3.7
2019-05-26T15:12:36.260Z,2.4
2019-05-26T15:14:37.248Z,1.2
2019-05-26T15:16:36.838Z,1.2
2019-05-26T15:18:36.461Z,3.7
2019-05-26T15:20:36.027Z,3.7
2019-05-26T15:22:36.652Z,1.2
2019-05-26T15:24:36.254Z,1.2
2019-05-26T15:26:35.751Z,1.2
2019-05-26T15:28:36.308Z,2.4
2019-05-26T15:30:36.779Z,2.4
2019-05-26T15:32:36.315Z,3.7
2019-05-26T15:34:37.163Z,2.4
2019-05-26T15:36:36.599Z,2.4
2019-05-26T15:38:44.099Z,1.2
2019-05-26T15:40:35.517Z,1.2
2019-05-26T15:42:35.994Z,2.4
2019-05-26T15:44:36.714Z,4.9
2019-05-26T15:46:36.167Z,4.9
2019-05-26T15:48:36.816Z,1.2
2019-05-26T15:50:36.737Z,1.2
2019-05-26T15:52:36.434Z,1.2
2019-05-26T15:54:36.207Z,2.4
2019-05-26T15:56:35.841Z,2.4
2019-05-26T15:58:36.514Z,4.9
2019-05-26T16:02:37.136Z,4.9
2019-05-26T16:04:36.965Z,6.1
2019-05-26T16:06:36.547Z,6.1
2019-05-26T16:08:36.107Z,6.1
2019-05-26T16:10:36.621Z,6.1
2019-05-26T16:12:36.013Z,2.4
2019-05-26T16:14:36.581Z,3.7
2019-05-26T16:16:42.630Z,3.7
2019-05-26T16:18:37.706Z,0
2019-05-26T16:20:35.223Z,0
2019-05-26T16:22:35.118Z,0
2019-05-26T16:24:34.758Z,0
2019-05-26T16:26:34.417Z,0
2019-05-26T16:28:34.659Z,1.2
2019-05-26T16:30:34.310Z,1.2
2019-05-26T16:32:33.946Z,0
2019-05-26T16:34:36.380Z,0
2019-05-26T16:36:37.101Z,0
2019-05-26T16:38:37.284Z,0
2019-05-26T16:40:37.303Z,0
2019-05-26T16:42:37.072Z,0
2019-05-26T16:44:36.797Z,0
2019-05-26T16:46:36.464Z,0
2019-05-26T16:48:36.064Z,0
2019-05-26T16:50:35.797Z,0
2019-05-26T16:52:36.635Z,2.4
2019-05-26T16:54:36.325Z,1.2
2019-05-26T16:56:37.125Z,1.2
2019-05-26T16:58:36.648Z,2.4
2019-05-26T17:00:36.174Z,2.4
2019-05-26T17:02:35.801Z,2.4
2019-05-26T17:04:36.569Z,2.4
2019-05-26T17:06:37.231Z,4.9
2019-05-26T17:08:36.698Z,0
2019-05-26T17:10:36.589Z,0
2019-05-26T17:12:36.140Z,2.4
2019-05-26T17:14:36.789Z,3.7
2019-05-26T17:16:36.249Z,2.4
2019-05-26T17:18:35.854Z,1.2
2019-05-26T17:20:36.607Z,1.2
2019-05-26T17:22:36.400Z,2.4
2019-05-26T17:24:36.928Z,2.4
2019-05-26T17:26:36.442Z,3.7
2019-05-26T17:28:35.927Z,3.7
2019-05-26T17:30:36.515Z,3.7
2019-05-26T17:32:36.112Z,2.4
2019-05-26T17:34:36.789Z,1.2
2019-05-26T17:36:36.412Z,1.2
2019-05-26T17:38:36.197Z,1.2
2019-05-26T17:40:36.744Z,1.2
2019-05-26T17:42:36.439Z,0
2019-05-26T17:44:36.104Z,0
2019-05-26T17:46:35.698Z,1.2
2019-05-26T17:48:36.307Z,1.2
2019-05-26T17:50:36.847Z,1.2
2019-05-26T17:52:36.599Z,0
2019-05-26T17:54:36.293Z,0
2019-05-26T17:56:35.823Z,0
2019-05-26T17:58:36.263Z,1.2
2019-05-26T18:00:36.817Z,1.2
2019-05-26T18:02:36.249Z,0
2019-05-26T18:04:37.009Z,0
2019-05-26T18:06:36.511Z,3.7
2019-05-26T18:08:37.789Z,0
2019-05-26T18:10:36.250Z,0
2019-05-26T18:12:36.842Z,0
2019-05-26T18:14:36.539Z,0
2019-05-26T18:16:35.991Z,0
2019-05-26T18:18:35.682Z,0
2019-05-26T18:20:36.193Z,0
2019-05-26T18:22:36.845Z,0
2019-05-26T18:24:36.439Z,0
2019-05-26T18:26:35.880Z,0
2019-05-26T18:28:36.330Z,2.4
2019-05-26T18:30:36.960Z,2.4
2019-05-26T18:32:36.375Z,1.2
2019-05-26T18:34:36.893Z,1.2
2019-05-26T18:36:36.310Z,1.2
2019-05-26T18:38:36.811Z,2.4
2019-05-26T18:40:36.443Z,2.4
2019-05-26T18:42:36.026Z,0
2019-05-26T18:44:36.684Z,1.2
2019-05-26T18:46:36.106Z,2.4
2019-05-26T18:48:35.560Z,2.4
2019-05-26T18:50:36.255Z,2.4
2019-05-26T18:52:36.709Z,2.4
2019-05-26T18:54:36.375Z,1.2
2019-05-26T18:56:36.917Z,2.4
2019-05-26T18:58:36.351Z,1.2
2019-05-26T19:00:36.532Z,1.2
2019-05-26T19:02:34.466Z,2.4
2019-05-26T19:04:35.998Z,2.4
2019-05-26T19:06:36.574Z,3.7
2019-05-26T19:08:35.969Z,3.7
2019-05-26T19:10:36.639Z,3.7
2019-05-26T19:12:36.049Z,2.4
2019-05-26T19:14:36.774Z,4.9
2019-05-26T19:16:36.432Z,3.7
2019-05-26T19:18:35.896Z,3.7
2019-05-26T19:20:36.465Z,3.7
2019-05-26T19:22:35.883Z,2.4
2019-05-26T19:24:36.628Z,3.7
2019-05-26T19:26:36.125Z,3.7
2019-05-26T19:28:35.555Z,3.7
2019-05-26T19:30:37.205Z,3.7
2019-05-26T19:32:36.750Z,2.4
2019-05-26T19:34:37.259Z,3.7
2019-05-26T19:36:35.813Z,3.7
2019-05-26T19:38:36.123Z,3.7
2019-05-26T19:40:36.721Z,3.7
2019-05-26T19:42:36.209Z,2.4
2019-05-26T19:44:36.838Z,1.2
2019-05-26T19:46:36.329Z,3.7
2019-05-26T19:48:38.063Z,2.4
2019-05-26T19:50:36.672Z,2.4
2019-05-26T19:52:36.141Z,2.4
2019-05-26T19:54:36.670Z,2.4
2019-05-26T19:56:36.264Z,2.4
2019-05-26T19:58:36.752Z,2.4
2019-05-26T20:00:36.504Z,2.4
2019-05-26T20:02:37.046Z,2.4
2019-05-26T20:04:36.943Z,2.4
2019-05-26T20:06:39.567Z,2.4
2019-05-26T20:08:43.056Z,2.4
2019-05-26T20:10:36.749Z,2.4
2019-05-26T20:12:36.269Z,2.4
2019-05-26T20:14:37.483Z,2.4
2019-05-26T20:16:35.995Z,2.4
2019-05-26T20:18:36.591Z,3.7
2019-05-26T20:20:36.676Z,3.7
2019-05-26T20:22:34.652Z,3.7
2019-05-26T20:24:36.180Z,1.2
2019-05-26T20:26:36.692Z,1.2
2019-05-26T20:28:36.108Z,1.2
2019-05-26T20:30:36.696Z,1.2
2019-05-26T20:32:36.253Z,1.2
2019-05-26T20:34:36.971Z,1.2
2019-05-26T20:36:36.427Z,1.2
2019-05-26T20:38:37.049Z,1.2
2019-05-26T20:40:35.921Z,1.2
2019-05-26T20:42:37.775Z,1.2
2019-05-26T20:44:38.155Z,1.2
2019-05-26T20:46:36.892Z,1.2
2019-05-26T20:48:36.851Z,1.2
2019-05-26T20:50:35.500Z,1.2
2019-05-26T20:52:35.961Z,1.2
2019-05-26T20:54:36.508Z,2.4
2019-05-26T20:56:36.035Z,2.4
2019-05-26T20:58:36.451Z,2.4
2019-05-26T21:00:37.833Z,1.2
2019-05-26T21:02:36.377Z,1.2
2019-05-26T21:04:36.958Z,1.2
2019-05-26T21:06:36.573Z,1.2
2019-05-26T21:08:36.163Z,1.2
2019-05-26T21:10:35.756Z,1.2
2019-05-26T21:12:36.088Z,1.2
2019-05-26T21:14:36.674Z,1.2
2019-05-26T21:16:36.121Z,1.2
2019-05-26T21:18:36.802Z,1.2
2019-05-26T21:20:36.476Z,2.4
2019-05-26T21:22:35.963Z,2.4
2019-05-26T21:24:36.580Z,1.2
2019-05-26T21:26:36.056Z,1.2
2019-05-26T21:28:35.622Z,1.2
2019-05-26T21:30:36.374Z,1.2
2019-05-26T21:32:36.998Z,1.2
2019-05-26T21:34:36.597Z,2.4
2019-05-26T21:36:37.822Z,2.4
2019-05-26T21:38:36.360Z,2.4
2019-05-26T21:40:36.862Z,1.2
2019-05-26T21:42:36.228Z,1.2
2019-05-26T21:44:36.679Z,1.2
2019-05-26T21:53:08.357Z,1.2
2019-05-26T21:54:35.897Z,1.2
2019-05-26T21:56:36.346Z,1.2
2019-05-26T21:58:36.754Z,2.4
2019-05-26T22:00:36.887Z,2.4
2019-05-26T22:02:34.906Z,2.4
2019-05-26T22:04:36.473Z,2.4
2019-05-26T22:06:37.039Z,2.4
2019-05-26T22:08:36.614Z,2.4
2019-05-26T22:10:36.248Z,2.4
2019-05-26T22:12:35.745Z,2.4
2019-05-26T22:14:36.346Z,1.2
2019-05-26T22:16:36.848Z,1.2
2019-05-26T22:18:36.583Z,2.4
2019-05-26T22:20:36.186Z,2.4
2019-05-26T22:22:36.603Z,2.4
2019-05-26T22:24:36.126Z,2.4
2019-05-26T22:26:36.709Z,2.4
2019-05-26T22:28:37.186Z,2.4
2019-05-26T22:30:37.024Z,2.4
2019-05-26T22:32:36.858Z,2.4
2019-05-26T22:34:36.658Z,2.4
2019-05-26T22:36:36.240Z,2.4
2019-05-26T22:38:35.742Z,2.4
2019-05-26T22:40:36.420Z,1.2
2019-05-26T22:42:36.843Z,1.2
2019-05-26T22:44:36.532Z,1.2
2019-05-26T22:46:36.002Z,1.2
2019-05-26T22:48:36.638Z,2.4
2019-05-26T22:50:37.359Z,2.4
2019-05-26T22:52:36.824Z,2.4
2019-05-26T22:54:37.426Z,2.4
2019-05-26T22:56:36.949Z,2.4
2019-05-26T22:58:36.523Z,2.4
2019-05-26T23:00:36.237Z,2.4
2019-05-26T23:02:35.726Z,2.4
2019-05-26T23:04:36.221Z,2.4
2019-05-26T23:06:42.713Z,2.4
2019-05-26T23:08:45.251Z,2.4
2019-05-26T23:10:36.412Z,2.4
2019-05-26T23:12:34.331Z,2.4
2019-05-26T23:14:35.943Z,1.2
2019-05-26T23:16:35.648Z,1.2
2019-05-26T23:18:36.139Z,1.2
2019-05-26T23:20:36.683Z,2.4
2019-05-26T23:22:36.125Z,2.4
2019-05-26T23:24:36.786Z,1.2
2019-05-26T23:26:36.216Z,1.2
2019-05-26T23:28:35.726Z,2.4
2019-05-26T23:30:36.321Z,2.4
2019-05-26T23:32:36.748Z,0
2019-05-26T23:34:36.459Z,0
2019-05-26T23:36:35.928Z,0
2019-05-26T23:38:36.493Z,0
2019-05-26T23:40:36.063Z,1.2
2019-05-26T23:42:36.473Z,0
2019-05-26T23:44:36.096Z,0
2019-05-26T23:46:36.591Z,0
2019-05-26T23:48:36.032Z,0
2019-05-26T23:50:35.715Z,0
2019-05-26T23:52:36.171Z,0
2019-05-26T23:54:35.724Z,0
2019-05-26T23:56:36.228Z,0
2019-05-26T23:58:36.837Z,0
